Time;durP1;ratioP1;P1;durP2;ratioP2;P2;SDS_P1;SDS_P2;PMS_P1;PMS_P2;Temp;Humidity;BMP_temperature;BMP_pressure;BME280_temperature;BME280_humidity;BME280_pressure;Samples;Min_cycle;Max_cycle;Signal;HPM_P1;HPM_P2
2021/04/18 00:01:02;;;;;;;8.13;4.17;;;;;;;6.83;64.00;97692.91;1636557;88;21190;-63
2021/04/18 00:03:34;;;;;;;8.48;5.60;;;;;;;6.82;64.08;97690.45;1636244;86;21197;-62
2021/04/18 00:06:05;;;;;;;11.18;4.95;;;;;;;6.76;65.17;97692.25;1636177;86;21197;-63
2021/04/18 00:08:33;;;;;;;10.82;4.92;;;;;;;6.77;64.88;97697.27;1635940;86;21262;-63
2021/04/18 00:11:01;;;;;;;10.80;5.15;;;;;;;6.75;64.93;97695.30;1636026;86;21551;-62
2021/04/18 00:13:29;;;;;;;7.40;4.30;;;;;;;6.75;64.36;97690.61;1636027;86;21590;-62
2021/04/18 00:15:57;;;;;;;7.42;3.77;;;;;;;6.77;63.20;97694.69;1635856;86;21206;-63
2021/04/18 00:18:25;;;;;;;6.30;3.95;;;;;;;6.80;61.99;97696.22;1635953;86;21590;-62
2021/04/18 00:20:56;;;;;;;10.23;4.47;;;;;;;6.83;61.86;97694.67;1635897;86;21225;-63
2021/04/18 00:23:24;;;;;;;7.12;3.60;;;;;;;6.84;61.68;97693.27;1636070;86;21166;-63
2021/04/18 00:25:53;;;;;;;5.75;3.85;;;;;;;6.86;62.14;97700.41;1635938;86;21241;-62
2021/04/18 00:28:21;;;;;;;7.90;4.53;;;;;;;6.86;62.24;97692.66;1636138;86;21186;-62
2021/04/18 00:30:50;;;;;;;7.45;3.80;;;;;;;6.88;61.77;97692.55;1636124;86;21229;-62
2021/04/18 00:33:18;;;;;;;5.08;3.55;;;;;;;6.89;62.21;97697.56;1636193;86;21209;-62
2021/04/18 00:35:46;;;;;;;9.40;4.83;;;;;;;6.89;61.29;97694.16;1636548;86;21174;-62
2021/04/18 00:38:14;;;;;;;5.87;4.03;;;;;;;6.90;61.57;97697.09;1636187;86;21228;-62
2021/04/18 00:40:42;;;;;;;6.97;4.28;;;;;;;6.89;61.77;97696.27;1636188;86;21706;-62
2021/04/18 00:43:12;;;;;;;8.53;4.70;;;;;;;6.89;62.39;97703.19;1636581;86;21610;-62
2021/04/18 00:45:40;;;;;;;6.62;4.50;;;;;;;6.88;61.54;97702.40;1636282;86;21266;-62
2021/04/18 00:48:08;;;;;;;10.13;4.53;;;;;;;6.87;61.96;97695.59;1636352;86;21194;-62
2021/04/18 00:50:39;;;;;;;8.68;4.78;;;;;;;6.86;61.53;97695.23;1636524;86;21536;-62
2021/04/18 00:53:08;;;;;;;7.40;3.95;;;;;;;6.88;61.36;97692.55;1614311;87;21206;-62
2021/04/18 00:55:40;;;;;;;7.80;4.50;;;;;;;6.85;63.15;97689.72;1635957;86;21615;-62
2021/04/18 00:58:10;;;;;;;7.72;4.65;;;;;;;6.86;63.01;97693.13;1636059;86;21285;-62
2021/04/18 01:00:40;;;;;;;6.70;3.80;;;;;;;6.86;62.00;97691.37;1613779;87;21606;-62
2021/04/18 01:03:09;;;;;;;6.33;3.58;;;;;;;6.85;62.87;97690.22;1639459;86;21198;-62
2021/04/18 01:05:39;;;;;;;8.70;3.90;;;;;;;6.85;61.59;97693.59;1644026;85;21588;-62
2021/04/18 01:08:09;;;;;;;6.70;3.90;;;;;;;6.87;61.84;97694.30;1643513;85;21175;-63
2021/04/18 01:10:39;;;;;;;9.30;4.15;;;;;;;6.87;61.46;97692.19;1614045;87;21308;-63
2021/04/18 01:13:07;;;;;;;6.35;4.50;;;;;;;6.87;62.64;97692.19;1616298;87;21251;-65
2021/04/18 01:15:37;;;;;;;6.70;3.33;;;;;;;6.88;62.08;97684.33;1643489;85;21209;-64
2021/04/18 01:18:05;;;;;;;5.10;3.60;;;;;;;6.88;60.67;97679.17;1643770;85;21647;-63
2021/04/18 01:20:34;;;;;;;6.12;3.52;;;;;;;6.89;61.08;97680.78;1642995;85;21199;-62
2021/04/18 01:23:06;;;;;;;8.18;4.28;;;;;;;6.89;61.98;97684.66;1617184;85;21480;-62
2021/04/18 01:25:42;;;;;;;7.37;4.17;;;;;;;6.87;61.08;97677.52;1611341;86;21621;-62
2021/04/18 01:28:16;;;;;;;7.53;3.52;;;;;;;6.87;62.03;97677.52;1643115;85;21239;-63
2021/04/18 01:30:45;;;;;;;4.97;3.30;;;;;;;6.87;62.27;97677.52;1644167;84;21191;-63
2021/04/18 01:33:13;;;;;;;13.45;4.15;;;;;;;6.87;61.91;97681.86;1643977;85;21251;-63
2021/04/18 01:35:46;;;;;;;7.75;3.72;;;;;;;6.86;61.99;97678.93;1643725;86;21223;-64
2021/04/18 01:38:17;;;;;;;5.87;4.20;;;;;;;6.85;63.39;97679.89;1643507;85;21184;-62
2021/04/18 01:40:45;;;;;;;6.53;4.12;;;;;;;6.84;63.08;97683.41;1643583;84;21199;-62
2021/04/18 01:43:17;;;;;;;8.75;4.37;;;;;;;6.83;62.62;97683.06;1643624;85;21187;-62
2021/04/18 01:45:49;;;;;;;7.40;3.70;;;;;;;6.81;64.29;97683.67;1643649;85;21364;-61
2021/04/18 01:48:19;;;;;;;6.28;3.87;;;;;;;6.77;63.52;97680.50;1643837;85;21216;-62
2021/04/18 01:50:51;;;;;;;11.38;4.75;;;;;;;6.77;63.37;97671.96;1643881;85;21632;-62
2021/04/18 01:53:20;;;;;;;7.42;3.77;;;;;;;6.79;62.05;97664.43;1643785;85;21203;-62
2021/04/18 01:55:50;;;;;;;7.25;4.28;;;;;;;6.79;61.61;97660.56;1643578;85;21745;-62
2021/04/18 01:58:17;;;;;;;6.28;3.67;;;;;;;6.78;63.90;97658.91;1643674;84;21632;-63
2021/04/18 02:01:02;;;;;;;5.75;3.42;;;;;;;6.75;64.29;97647.56;1642878;85;21184;-63
2021/04/18 02:03:31;;;;;;;5.62;3.72;;;;;;;6.76;63.77;97645.80;1640273;86;21221;-63
2021/04/18 02:06:02;;;;;;;6.12;3.80;;;;;;;6.74;65.48;97654.13;1636273;86;21162;-63
2021/04/18 02:08:31;;;;;;;9.30;3.80;;;;;;;6.70;64.39;97649.69;1636259;86;21606;-62
2021/04/18 02:10:59;;;;;;;7.42;3.75;;;;;;;6.67;66.14;97653.83;1636216;86;21194;-63
2021/04/18 02:13:32;;;;;;;7.53;3.95;;;;;;;6.65;65.57;97655.73;1636423;86;21178;-63
2021/04/18 02:16:11;;;;;;;5.53;3.95;;;;;;;6.59;66.26;97658.79;1634789;86;21169;-61
2021/04/18 02:18:41;;;;;;;6.92;4.53;;;;;;;6.57;65.64;97658.11;1635273;86;21256;-61
2021/04/18 02:21:10;;;;;;;7.72;4.28;;;;;;;6.54;66.10;97656.58;1636195;86;21237;-62
2021/04/18 02:23:40;;;;;;;5.50;2.70;;;;;;;6.57;65.71;97655.06;1636151;86;21284;-62
2021/04/18 02:26:09;;;;;;;4.35;3.10;;;;;;;6.57;66.11;97660.22;1613116;87;21202;-64
2021/04/18 02:28:38;;;;;;;6.62;3.58;;;;;;;6.57;66.78;97661.98;1636132;86;21190;-62
2021/04/18 02:31:08;;;;;;;5.67;3.42;;;;;;;6.59;65.40;97645.89;1635988;86;21185;-63
2021/04/18 02:33:38;;;;;;;5.00;3.58;;;;;;;6.62;65.58;97649.03;1635816;86;21190;-63
2021/04/18 02:36:08;;;;;;;5.45;3.37;;;;;;;6.62;65.42;97652.08;1636170;86;21966;-63
2021/04/18 02:38:36;;;;;;;6.30;3.10;;;;;;;6.62;66.57;97654.20;1636366;86;21229;-62
2021/04/18 02:41:05;;;;;;;6.15;3.20;;;;;;;6.62;66.45;97656.77;1613871;86;21177;-61
2021/04/18 02:43:33;;;;;;;5.45;3.45;;;;;;;6.61;66.77;97660.29;1613422;87;21619;-64
2021/04/18 02:46:03;;;;;;;8.05;3.75;;;;;;;6.58;66.68;97659.72;1636308;86;21197;-62
2021/04/18 02:48:31;;;;;;;6.45;4.03;;;;;;;6.58;66.55;97645.06;1636285;86;21634;-62
2021/04/18 02:50:59;;;;;;;5.22;3.02;;;;;;;6.61;65.52;97637.56;1636106;86;21249;-62
2021/04/18 02:53:27;;;;;;;8.53;4.62;;;;;;;6.64;64.87;97633.44;1636173;86;21154;-62
2021/04/18 02:55:56;;;;;;;4.60;3.02;;;;;;;6.64;66.72;97642.47;1636354;86;21598;-64
2021/04/18 02:58:28;;;;;;;5.83;3.62;;;;;;;6.61;65.78;97640.94;1633919;86;21197;-63
2021/04/18 03:00:57;;;;;;;7.12;3.70;;;;;;;6.65;65.80;97647.98;1636254;86;21213;-64
2021/04/18 03:03:25;;;;;;;5.65;3.08;;;;;;;6.64;65.66;97651.03;1638213;86;21242;-64
2021/04/18 03:05:54;;;;;;;6.28;3.33;;;;;;;6.64;66.29;97648.92;1643574;85;21262;-64
2021/04/18 03:08:22;;;;;;;5.05;3.27;;;;;;;6.63;67.12;97649.86;1643526;85;21632;-66
2021/04/18 03:10:51;;;;;;;5.35;2.80;;;;;;;6.64;66.13;97651.50;1643158;85;21262;-62
2021/04/18 03:13:21;;;;;;;6.17;2.90;;;;;;;6.65;65.66;97641.03;1643327;85;21550;-62
2021/04/18 03:15:51;;;;;;;6.12;3.37;;;;;;;6.68;65.12;97643.86;1643733;85;21215;-63
2021/04/18 03:18:20;;;;;;;8.05;4.08;;;;;;;6.55;66.71;97625.98;1643283;85;21195;-62
2021/04/18 03:20:49;;;;;;;5.83;3.83;;;;;;;6.67;65.65;97639.16;1643403;85;21226;-63
2021/04/18 03:23:18;;;;;;;5.67;3.47;;;;;;;6.68;65.71;97636.94;1643258;84;21638;-62
2021/04/18 03:25:48;;;;;;;6.00;3.55;;;;;;;6.68;66.66;97639.98;1643370;85;21179;-62
2021/04/18 03:28:17;;;;;;;6.22;3.77;;;;;;;6.64;67.49;97640.71;1643349;85;21167;-64
2021/04/18 03:31:09;;;;;;;6.72;4.05;;;;;;;6.64;66.79;97635.55;1643380;85;21179;-64
2021/04/18 03:33:38;;;;;;;4.75;3.40;;;;;;;6.65;65.98;97633.80;1633788;86;21185;-62
2021/04/18 03:36:11;;;;;;;6.45;3.65;;;;;;;6.67;65.43;97634.00;1635387;85;21178;-63
2021/04/18 03:38:39;;;;;;;7.10;4.30;;;;;;;6.67;66.71;97637.05;1635729;86;21198;-63
2021/04/18 03:41:09;;;;;;;6.22;3.55;;;;;;;6.63;67.37;97636.48;1613142;88;21663;-62
2021/04/18 03:43:38;;;;;;;9.58;4.20;;;;;;;6.62;66.69;97640.00;1634929;86;21679;-63
2021/04/18 03:46:09;;;;;;;8.35;4.65;;;;;;;6.62;67.48;97641.30;1635041;86;21630;-62
2021/04/18 03:48:39;;;;;;;7.78;3.65;;;;;;;6.64;66.72;97643.77;1634030;86;21195;-63
2021/04/18 03:51:07;;;;;;;4.70;3.55;;;;;;;6.61;67.79;97651.26;1634742;86;21253;-62
2021/04/18 03:53:37;;;;;;;7.72;4.60;;;;;;;6.62;67.88;97652.08;1633743;86;21240;-66
2021/04/18 03:56:07;;;;;;;7.22;4.35;;;;;;;6.63;67.70;97644.70;1612913;86;21197;-62
2021/04/18 03:58:40;;;;;;;7.12;3.90;;;;;;;6.64;67.34;97645.87;1634116;86;21646;-62
2021/04/18 04:01:11;;;;;;;7.20;3.90;;;;;;;6.66;67.13;97647.02;1635274;86;21345;-62
2021/04/18 04:03:40;;;;;;;7.00;3.77;;;;;;;6.69;66.63;97645.50;1634696;86;21194;-63
2021/04/18 04:06:11;;;;;;;5.20;3.47;;;;;;;6.69;67.09;97647.58;1635624;86;21185;-65
2021/04/18 04:08:41;;;;;;;8.23;4.50;;;;;;;6.71;66.60;97646.64;1635168;85;21237;-64
2021/04/18 04:11:11;;;;;;;9.55;3.80;;;;;;;6.72;68.25;97658.14;1635136;86;21292;-64
2021/04/18 04:13:40;;;;;;;13.13;4.72;;;;;;;6.70;68.32;97662.59;1634680;86;21181;-64
2021/04/18 04:16:09;;;;;;;18.50;5.25;;;;;;;6.69;69.56;97665.64;1634817;86;21186;-63
2021/04/18 04:18:39;;;;;;;9.68;5.30;;;;;;;6.68;70.05;97669.19;1634506;86;21695;-64
2021/04/18 04:21:14;;;;;;;9.95;5.15;;;;;;;6.69;69.99;97677.25;1634108;86;21166;-63
2021/04/18 04:23:56;;;;;;;8.43;5.12;;;;;;;6.68;70.15;97674.82;1633335;86;21146;-63
2021/04/18 04:26:24;;;;;;;10.50;5.20;;;;;;;6.72;69.09;97674.92;1635458;86;21349;-64
2021/04/18 04:28:52;;;;;;;11.00;4.50;;;;;;;6.78;68.68;97679.56;1635140;86;21226;-66
2021/04/18 04:31:20;;;;;;;11.93;4.42;;;;;;;6.84;68.21;97680.83;1635271;86;21189;-65
2021/04/18 04:33:48;;;;;;;9.00;3.75;;;;;;;6.90;67.53;97675.97;1671301;84;21258;-62
2021/04/18 04:36:16;;;;;;;5.60;2.50;;;;;;;6.99;67.08;97681.67;1671138;84;21183;-64
2021/04/18 04:38:45;;;;;;;7.25;3.83;;;;;;;7.07;66.87;97677.98;1671422;84;21183;-63
2021/04/18 04:41:13;;;;;;;10.70;4.05;;;;;;;7.18;66.63;97678.84;1671370;84;21183;-61
2021/04/18 04:43:41;;;;;;;5.72;3.72;;;;;;;7.26;66.60;97685.48;1671174;84;21175;-62
2021/04/18 04:46:09;;;;;;;13.53;4.42;;;;;;;7.34;66.46;97678.73;1671186;84;21230;-62
2021/04/18 04:48:37;;;;;;;8.18;4.05;;;;;;;7.44;66.44;97679.58;1670678;84;21207;-63
2021/04/18 04:51:07;;;;;;;9.78;3.83;;;;;;;7.54;66.17;97682.21;1670807;84;21207;-62
2021/04/18 04:53:35;;;;;;;10.30;3.55;;;;;;;7.61;66.39;97684.61;1670100;84;21607;-61
2021/04/18 04:56:05;;;;;;;7.83;4.65;;;;;;;7.68;66.09;97683.13;1671032;84;21580;-62
2021/04/18 04:58:33;;;;;;;8.55;3.87;;;;;;;7.74;65.94;97685.67;1671053;84;21196;-61
2021/04/18 05:01:01;;;;;;;8.50;3.47;;;;;;;7.81;65.78;97682.43;1671404;84;21200;-65
2021/04/18 05:03:29;;;;;;;6.03;3.65;;;;;;;7.92;65.48;97681.50;1671355;84;21152;-67
2021/04/18 05:05:59;;;;;;;8.68;4.25;;;;;;;8.04;65.26;97683.84;1671249;84;21227;-63
2021/04/18 05:08:27;;;;;;;5.83;3.67;;;;;;;8.16;65.01;97688.89;1671284;84;21604;-62
2021/04/18 05:10:55;;;;;;;6.25;4.00;;;;;;;8.24;64.66;97682.58;1642450;84;21242;-63
2021/04/18 05:13:23;;;;;;;5.00;3.30;;;;;;;8.35;64.41;97679.88;1640215;86;21159;-61
2021/04/18 05:15:51;;;;;;;8.40;3.77;;;;;;;8.45;64.04;97674.22;1640203;87;21177;-62
2021/04/18 05:18:19;;;;;;;8.68;3.80;;;;;;;8.51;63.54;97680.98;1649985;86;21202;-63
2021/04/18 05:20:47;;;;;;;9.10;4.35;;;;;;;8.58;63.56;97679.95;1670800;84;21567;-63
2021/04/18 05:23:15;;;;;;;7.20;4.35;;;;;;;8.67;63.16;97680.91;1670878;84;21632;-64
2021/04/18 05:25:43;;;;;;;10.35;4.25;;;;;;;8.66;62.88;97678.80;1671206;84;21187;-62
2021/04/18 05:28:12;;;;;;;9.10;4.75;;;;;;;8.75;62.82;97675.39;1656276;86;21259;-63
2021/04/18 05:30:40;;;;;;;6.92;4.47;;;;;;;8.80;62.50;97677.06;1650316;86;21170;-64
2021/04/18 05:33:08;;;;;;;9.45;4.67;;;;;;;8.78;62.24;97665.22;1665934;84;21167;-62
2021/04/18 05:35:36;;;;;;;10.08;5.08;;;;;;;8.90;62.32;97673.18;1663166;86;21158;-64
2021/04/18 05:38:04;;;;;;;8.68;5.50;;;;;;;8.92;62.00;97679.84;1663155;86;21176;-62
2021/04/18 05:40:32;;;;;;;9.03;5.53;;;;;;;8.81;61.88;97681.30;1663782;86;21195;-62
2021/04/18 05:43:01;;;;;;;8.08;4.95;;;;;;;8.66;61.70;97683.15;1663406;86;21156;-61
2021/04/18 05:45:29;;;;;;;7.28;4.22;;;;;;;8.72;61.75;97676.11;1663026;84;21196;-64
2021/04/18 05:47:58;;;;;;;9.63;4.60;;;;;;;8.79;61.51;97684.98;1663172;86;21164;-64
2021/04/18 05:50:26;;;;;;;9.85;5.17;;;;;;;8.80;60.50;97683.53;1663561;86;21240;-64
2021/04/18 05:52:54;;;;;;;9.35;4.37;;;;;;;8.78;60.55;97684.16;1663009;86;21554;-64
2021/04/18 05:55:22;;;;;;;7.95;4.83;;;;;;;8.78;60.86;97685.46;1663315;86;21156;-66
2021/04/18 05:57:50;;;;;;;7.12;4.00;;;;;;;8.79;60.92;97692.28;1663060;86;21524;-62
2021/04/18 06:00:19;;;;;;;8.00;4.62;;;;;;;8.69;60.86;97690.16;1663190;86;21160;-64
2021/04/18 06:02:49;;;;;;;7.40;5.10;;;;;;;8.48;61.43;97689.50;1662884;86;21172;-65
2021/04/18 06:05:17;;;;;;;9.68;4.53;;;;;;;8.50;61.33;97690.98;1663054;86;21609;-64
2021/04/18 06:07:46;;;;;;;8.00;4.30;;;;;;;8.53;61.11;97690.70;1663274;86;21561;-64
2021/04/18 06:10:35;;;;;;;9.98;4.30;;;;;;;8.53;61.14;97692.48;1663004;86;21129;-64
2021/04/18 06:13:03;;;;;;;9.20;4.75;;;;;;;8.41;61.61;97689.68;1703089;83;21288;-64
2021/04/18 06:15:31;;;;;;;9.08;4.78;;;;;;;8.38;61.70;97689.95;1703265;83;21299;-65
2021/04/18 06:18:01;;;;;;;8.98;4.08;;;;;;;8.09;62.28;97684.74;1703067;83;21182;-64
2021/04/18 06:20:29;;;;;;;8.43;4.45;;;;;;;8.25;61.46;97687.59;1703093;83;21292;-64
2021/04/18 06:22:57;;;;;;;12.68;4.60;;;;;;;8.25;61.75;97688.89;1703087;84;21205;-64
2021/04/18 06:25:26;;;;;;;7.35;3.92;;;;;;;8.09;62.59;97693.29;1703034;84;21599;-64
2021/04/18 06:27:54;;;;;;;6.97;4.15;;;;;;;8.15;62.67;97688.07;1703116;83;21194;-64
2021/04/18 06:30:44;;;;;;;10.72;4.62;;;;;;;8.25;62.14;97686.80;1703304;84;21176;-68
2021/04/18 06:33:12;;;;;;;7.50;3.58;;;;;;;8.23;62.31;97683.52;1712695;83;21172;-68
2021/04/18 06:35:40;;;;;;;6.85;4.05;;;;;;;8.25;62.17;97684.22;1712527;83;21151;-63
2021/04/18 06:38:09;;;;;;;5.75;3.15;;;;;;;8.23;61.94;97685.63;1712356;83;22340;-63
2021/04/18 06:40:37;;;;;;;6.50;3.52;;;;;;;8.20;62.35;97692.84;1711949;84;21163;-64
2021/04/18 06:43:10;;;;;;;5.35;3.65;;;;;;;8.29;61.82;97690.28;1712062;83;21475;-64
2021/04/18 06:45:39;;;;;;;9.25;3.62;;;;;;;8.26;62.10;97693.12;1712129;84;21221;-64
2021/04/18 06:48:14;;;;;;;7.53;4.08;;;;;;;8.33;61.83;97689.06;1712368;82;21159;-64
2021/04/18 06:50:43;;;;;;;6.83;4.28;;;;;;;8.38;62.05;97693.37;1712415;84;21169;-64
2021/04/18 06:53:11;;;;;;;6.60;4.12;;;;;;;8.22;63.99;97702.56;1712315;84;21187;-64
2021/04/18 06:55:40;;;;;;;7.22;4.17;;;;;;;8.23;63.61;97706.33;1712494;84;21582;-64
2021/04/18 06:58:08;;;;;;;7.58;3.98;;;;;;;8.32;63.82;97697.80;1712367;84;21159;-64
2021/04/18 07:00:36;;;;;;;6.87;3.75;;;;;;;8.27;64.74;97699.94;1712343;84;21596;-64
2021/04/18 07:03:18;;;;;;;5.42;3.55;;;;;;;8.23;64.78;97697.74;1712343;83;21171;-63
2021/04/18 07:08:33;;;;;;;5.83;3.95;;;;;;;8.10;66.12;97705.28;1641340;86;21156;-64
2021/04/18 07:11:15;;;;;;;5.58;3.65;;;;;;;8.20;66.92;97705.31;1639994;86;21171;-63
2021/04/18 07:13:46;;;;;;;11.70;4.70;;;;;;;8.37;66.11;97703.84;1628203;87;21671;-63
2021/04/18 07:16:44;;;;;;;8.45;4.25;;;;;;;8.44;66.83;97703.66;1610273;88;21676;-63
2021/04/18 07:19:26;;;;;;;6.05;3.08;;;;;;;8.61;65.61;97701.67;1587875;89;21315;-61
2021/04/18 07:21:57;;;;;;;7.33;3.92;;;;;;;8.74;65.52;97705.28;1619505;88;21697;-63
2021/04/18 07:24:25;;;;;;;7.85;4.35;;;;;;;8.85;65.17;97704.66;1606974;89;21166;-64
2021/04/18 07:27:04;;;;;;;4.92;3.17;;;;;;;8.86;64.62;97699.01;1623276;88;21673;-64
2021/04/18 07:29:34;;;;;;;3.50;2.87;;;;;;;8.97;61.63;97693.67;1623493;88;21185;-64
2021/04/18 07:32:24;;;;;;;4.33;2.98;;;;;;;9.08;62.52;97688.80;1619737;88;21194;-64
2021/04/18 07:34:54;;;;;;;6.03;3.37;;;;;;;9.21;67.13;97696.63;1623394;88;21332;-64
2021/04/18 07:37:25;;;;;;;4.75;3.00;;;;;;;8.74;61.65;97632.80;1622892;88;21666;-68
2021/04/18 07:40:00;;;;;;;2.72;1.90;;;;;;;9.15;60.23;97702.83;1623360;88;21242;-64
2021/04/18 07:42:40;;;;;;;4.57;2.53;;;;;;;9.08;59.58;97702.58;1623754;88;21225;-64
2021/04/18 07:45:15;;;;;;;2.42;1.72;;;;;;;8.84;59.69;97708.67;1654440;86;21573;-63
2021/04/18 07:47:46;;;;;;;3.20;2.12;;;;;;;8.84;60.90;97709.49;1656248;87;21188;-63
2021/04/18 07:50:19;;;;;;;6.53;2.83;;;;;;;8.85;59.74;97709.02;1656528;87;21196;-64
2021/04/18 07:52:50;;;;;;;5.12;2.65;;;;;;;8.97;59.54;97718.28;1656469;87;21583;-64
2021/04/18 07:55:21;;;;;;;2.65;2.33;;;;;;;8.92;60.71;97712.22;1656256;85;21215;-62
2021/04/18 07:57:51;;;;;;;3.22;1.75;;;;;;;8.69;59.98;97705.69;1656337;87;21203;-64
2021/04/18 08:00:41;;;;;;;4.05;2.33;;;;;;;8.85;60.11;97711.14;1656408;87;21148;-63
2021/04/18 08:03:13;;;;;;;2.87;1.98;;;;;;;8.86;59.22;97694.66;1610484;89;21240;-63
2021/04/18 08:05:42;;;;;;;3.85;2.10;;;;;;;9.01;58.88;97682.08;1610123;89;21236;-64
2021/04/18 08:08:14;;;;;;;4.20;2.05;;;;;;;9.28;59.33;97678.73;1610311;87;21188;-65
2021/04/18 08:10:51;;;;;;;3.27;2.00;;;;;;;9.35;60.29;97676.73;1609679;87;21201;-63
2021/04/18 08:13:26;;;;;;;2.80;1.47;;;;;;;9.39;58.11;97674.67;1598540;87;21193;-64
2021/04/18 08:16:04;;;;;;;3.25;1.67;;;;;;;9.60;58.12;97679.16;1571408;91;21285;-64
2021/04/18 08:18:47;;;;;;;3.80;1.90;;;;;;;9.77;56.08;97677.56;1609831;88;21223;-63
2021/04/18 08:21:36;;;;;;;2.55;1.40;;;;;;;9.85;55.62;97671.99;1619306;88;21188;-63
2021/04/18 08:24:30;;;;;;;1.70;1.55;;;;;;;10.02;53.23;97666.52;1619524;88;21192;-63
2021/04/18 08:27:07;;;;;;;2.25;1.70;;;;;;;10.05;53.78;97671.88;1625373;87;21175;-64
2021/04/18 08:29:56;;;;;;;2.17;1.32;;;;;;;10.23;52.72;97667.58;1664816;85;21167;-64
2021/04/18 08:32:52;;;;;;;2.75;1.25;;;;;;;10.20;52.80;97669.96;1664321;85;21605;-65
2021/04/18 08:35:28;;;;;;;4.12;2.00;;;;;;;10.68;52.52;97664.88;1614624;86;21369;-65
2021/04/18 08:38:13;;;;;;;2.70;1.70;;;;;;;10.94;50.15;97657.92;1579338;90;21631;-65
2021/04/18 08:41:05;;;;;;;2.62;2.00;;;;;;;11.20;49.46;97657.94;1764218;79;28262;-64
2021/04/18 08:43:33;;;;;;;3.65;2.45;;;;;;;11.28;49.19;97656.69;1738012;82;28249;-64
2021/04/18 08:46:02;;;;;;;2.47;1.80;;;;;;;11.76;48.73;97657.40;1752889;82;21553;-64
2021/04/18 08:48:31;;;;;;;2.10;1.45;;;;;;;11.82;47.33;97650.28;1753013;82;21160;-65
2021/04/18 08:51:08;;;;;;;3.92;2.00;;;;;;;12.02;48.74;97648.23;1753206;82;21208;-64
2021/04/18 08:53:59;;;;;;;2.67;1.90;;;;;;;12.10;46.14;97643.05;1753116;81;21219;-64
2021/04/18 08:56:52;;;;;;;5.72;2.45;;;;;;;12.15;45.75;97638.97;1753378;82;21158;-64
2021/04/18 08:59:21;;;;;;;3.05;1.75;;;;;;;11.75;46.40;97636.28;1747449;82;21113;-65
2021/04/18 09:02:17;;;;;;;1.70;1.20;;;;;;;12.10;46.36;97631.33;1722318;82;21182;-64
2021/04/18 09:04:49;;;;;;;1.90;1.43;;;;;;;12.25;46.57;97627.94;1614641;88;21234;-65
2021/04/18 09:07:20;;;;;;;4.37;1.60;;;;;;;12.53;47.07;97625.81;1614190;88;21234;-65
2021/04/18 09:09:48;;;;;;;2.55;1.67;;;;;;;12.78;46.73;97626.14;1614268;88;21214;-64
2021/04/18 09:12:18;;;;;;;3.30;1.75;;;;;;;13.03;44.44;97611.77;1614591;88;21588;-65
2021/04/18 09:14:49;;;;;;;2.87;1.90;;;;;;;12.80;43.61;97609.05;1614399;88;21639;-64
2021/04/18 09:17:28;;;;;;;3.35;1.67;;;;;;;12.92;41.46;97609.52;1614110;88;21195;-65
2021/04/18 09:20:01;;;;;;;2.33;1.47;;;;;;;13.30;41.52;97595.76;1614210;88;21250;-65
2021/04/18 09:22:38;;;;;;;2.17;1.60;;;;;;;13.22;41.59;97610.13;1614565;88;21207;-64
2021/04/18 09:25:15;;;;;;;3.80;2.02;;;;;;;13.38;41.02;97600.13;1614396;88;21247;-64
2021/04/18 09:27:52;;;;;;;2.58;1.98;;;;;;;13.15;41.53;97596.92;1614436;88;21183;-63
2021/04/18 09:30:26;;;;;;;2.75;1.77;;;;;;;13.08;42.13;97601.16;1614043;88;21211;-63
2021/04/18 09:32:57;;;;;;;2.98;1.90;;;;;;;13.09;41.66;97590.24;1614129;88;21628;-64
2021/04/18 09:35:27;;;;;;;2.83;1.72;;;;;;;13.13;40.29;97594.98;1614271;88;21175;-65
2021/04/18 09:38:00;;;;;;;2.83;1.67;;;;;;;12.57;40.12;97597.64;1614186;88;21680;-63
2021/04/18 09:40:32;;;;;;;5.55;2.02;;;;;;;12.84;40.14;97603.31;1614136;88;21222;-66
2021/04/18 09:43:03;;;;;;;2.62;1.95;;;;;;;12.66;40.58;97605.79;1614348;88;21230;-63
2021/04/18 09:45:32;;;;;;;4.03;1.72;;;;;;;12.63;41.22;97603.03;1614111;88;21652;-65
2021/04/18 09:48:17;;;;;;;2.83;1.45;;;;;;;12.43;42.52;97587.41;1614244;88;21283;-64
2021/04/18 09:51:01;;;;;;;2.65;1.80;;;;;;;12.34;43.06;97600.09;1614213;88;21223;-62
2021/04/18 09:53:29;;;;;;;3.72;2.27;;;;;;;12.36;42.98;97609.88;1613531;88;21255;-63
2021/04/18 09:56:08;;;;;;;4.75;2.90;;;;;;;12.38;43.30;97606.13;1613641;88;21207;-64
2021/04/18 09:58:39;;;;;;;2.00;1.72;;;;;;;12.52;43.40;97598.16;1613759;88;21581;-64
2021/04/18 10:01:28;;;;;;;3.90;1.95;;;;;;;12.65;43.29;97601.55;1613735;88;21719;-64
2021/04/18 10:03:57;;;;;;;2.20;1.55;;;;;;;12.57;42.84;97605.45;1608482;87;21167;-65
2021/04/18 10:06:26;;;;;;;2.72;1.77;;;;;;;12.41;42.74;97598.49;1611837;88;21167;-64
2021/04/18 10:08:57;;;;;;;3.42;1.90;;;;;;;12.23;43.23;97605.14;1607677;88;21171;-64
2021/04/18 10:11:25;;;;;;;3.77;2.30;;;;;;;12.30;43.12;97595.70;1611560;88;21203;-64
2021/04/18 10:14:18;;;;;;;2.50;2.08;;;;;;;12.27;43.59;97594.73;1611406;88;21206;-64
2021/04/18 10:16:46;;;;;;;4.28;1.92;;;;;;;12.09;43.88;97607.57;1638590;86;21174;-64
2021/04/18 10:19:20;;;;;;;3.25;1.92;;;;;;;12.02;43.69;97607.89;1638469;87;21179;-64
2021/04/18 10:22:10;;;;;;;3.55;2.15;;;;;;;11.80;44.76;97602.30;1638723;87;21207;-63
2021/04/18 10:24:47;;;;;;;2.95;2.27;;;;;;;11.79;45.10;97614.97;1638840;87;21222;-64
2021/04/18 10:27:22;;;;;;;6.37;2.60;;;;;;;11.63;45.79;97616.22;1638464;87;21179;-63
2021/04/18 10:29:52;;;;;;;4.23;2.93;;;;;;;11.25;46.84;97627.08;1638896;86;21639;-64
2021/04/18 10:32:22;;;;;;;3.70;2.62;;;;;;;11.08;48.76;97622.78;1638419;86;21219;-64
2021/04/18 10:34:52;;;;;;;3.83;2.50;;;;;;;11.12;48.83;97618.42;1638478;87;21669;-64
2021/04/18 10:37:23;;;;;;;3.42;1.98;;;;;;;11.11;49.94;97618.56;1638410;86;21143;-64
2021/04/18 10:39:51;;;;;;;3.67;1.82;;;;;;;11.24;49.41;97619.80;1638263;87;21183;-64
2021/04/18 10:42:19;;;;;;;2.80;2.20;;;;;;;11.20;47.96;97618.47;1638356;87;21582;-64
2021/04/18 10:44:47;;;;;;;4.83;3.00;;;;;;;11.30;48.48;97624.36;1638555;87;21229;-64
2021/04/18 10:47:19;;;;;;;3.10;2.40;;;;;;;11.21;48.71;97634.86;1638482;86;21229;-63
2021/04/18 10:49:49;;;;;;;3.40;2.37;;;;;;;11.18;48.84;97632.57;1638273;87;21737;-63
2021/04/18 10:52:17;;;;;;;5.05;2.52;;;;;;;11.14;49.75;97628.65;1638383;86;21261;-64
2021/04/18 10:54:46;;;;;;;3.72;3.08;;;;;;;11.21;49.87;97645.25;1638371;86;21187;-64
2021/04/18 10:57:15;;;;;;;6.20;2.72;;;;;;;10.91;50.80;97648.66;1638450;87;21246;-64
2021/04/18 10:59:43;;;;;;;3.83;2.17;;;;;;;10.88;50.00;97644.25;1638410;87;21148;-63
2021/04/18 11:02:12;;;;;;;3.02;2.35;;;;;;;11.00;50.80;97646.11;1638405;86;21195;-64
2021/04/18 11:04:40;;;;;;;4.30;2.80;;;;;;;11.20;51.45;97647.06;1638703;87;21182;-64
2021/04/18 11:07:09;;;;;;;5.35;2.37;;;;;;;11.33;52.46;97648.73;1638667;86;21192;-67
2021/04/18 11:09:38;;;;;;;3.83;2.33;;;;;;;11.47;51.61;97651.25;1638329;87;21182;-65
2021/04/18 11:12:20;;;;;;;5.70;1.92;;;;;;;11.46;50.02;97652.70;1638376;86;21171;-65
2021/04/18 11:14:49;;;;;;;2.83;1.82;;;;;;;11.40;52.05;97656.24;1639797;87;22618;-65
2021/04/18 11:17:17;;;;;;;3.55;1.80;;;;;;;11.31;50.74;97653.77;1649515;87;21189;-65
2021/04/18 11:19:46;;;;;;;3.42;1.95;;;;;;;11.42;51.60;97651.72;1649736;87;21261;-65
2021/04/18 11:25:00;;;;;;;2.12;1.67;;;;;;;11.57;52.09;97655.02;1666646;85;21177;-66
2021/04/18 11:27:28;;;;;;;2.15;1.55;;;;;;;11.59;49.84;97653.91;1666532;85;21213;-66
2021/04/18 11:29:56;;;;;;;4.33;1.82;;;;;;;11.83;50.01;97655.80;1666714;86;21149;-67
2021/04/18 11:32:24;;;;;;;2.92;1.32;;;;;;;11.74;48.30;97651.55;1674059;82;21644;-65
2021/04/18 11:35:08;;;;;;;2.98;1.57;;;;;;;11.63;47.94;97659.13;1715094;84;21692;-66
2021/04/18 11:37:37;;;;;;;1.90;1.22;;;;;;;11.63;47.45;97661.73;1715194;84;21201;-66
2021/04/18 11:42:48;;;;;;;1.47;1.32;;;;;;;11.51;48.59;97659.55;1621894;88;21251;-66
2021/04/18 11:45:18;;;;;;;3.25;2.83;;;;;;;11.57;47.49;97658.44;1621991;88;21620;-66
2021/04/18 11:47:47;;;;;;;2.98;2.00;;;;;;;11.57;48.47;97649.82;1621947;88;21694;-66
2021/04/18 11:50:37;;;;;;;2.58;1.67;;;;;;;11.55;48.45;97655.67;1621753;88;21152;-66
2021/04/18 11:53:05;;;;;;;2.90;1.40;;;;;;;11.48;49.18;97652.08;1576532;91;21188;-66
2021/04/18 11:55:34;;;;;;;3.02;1.77;;;;;;;11.58;49.89;97652.76;1576188;90;21681;-66
2021/04/18 11:58:05;;;;;;;2.35;1.80;;;;;;;11.52;51.05;97647.68;1556763;92;21213;-66
2021/04/18 12:00:35;;;;;;;2.62;1.85;;;;;;;11.46;51.75;97656.60;1536590;92;21637;-66
2021/04/18 12:03:03;;;;;;;2.72;1.77;;;;;;;11.57;49.18;97654.53;1533209;92;21277;-66
2021/04/18 12:05:33;;;;;;;4.12;2.05;;;;;;;11.63;51.55;97651.81;1556824;92;21293;-66
2021/04/18 12:08:01;;;;;;;3.02;1.90;;;;;;;11.72;51.30;97650.40;1537321;92;21215;-66